ADDS TAF Data INFO
IDs: Format: Raw Decoded Include METARs

Data at: 2142 UTC 24 Feb 2018

KAMA 242053Z 29023G30KT 10SM CLR 12/M21 A2983 RMK AO2 PK WND 29033/2011 SLP092 T01221206 55005

KAMA 241747Z 2418/2518 28025G38KT P6SM SKC
  FM242100 30021G31KT P6SM SKC
  FM250200 17009KT P6SM SKC
  FM251700 26015KT P6SM SKC